Time;durP1;ratioP1;P1;durP2;ratioP2;P2;SDS_P1;SDS_P2;PMS_P1;PMS_P2;Temp;Humidity;BMP_temperature;BMP_pressure;BME280_temperature;BME280_humidity;BME280_pressure;Samples;Min_cycle;Max_cycle;Signal;HPM_P1;HPM_P2
2021/03/26 00:01:49;;;;;;;94.97;47.57;;;;;;;5.55;79.12;100993.70;3609898;80;33121;-86
2021/03/26 00:06:51;;;;;;;92.43;47.37;;;;;;;5.57;79.49;100997.70;3608787;80;98674;-85
2021/03/26 00:11:55;;;;;;;89.33;46.60;;;;;;;5.59;79.49;100998.74;3620959;80;26001;-85
2021/03/26 00:16:55;;;;;;;90.92;47.45;;;;;;;5.65;79.45;100995.50;3602837;80;98779;-86
2021/03/26 00:21:57;;;;;;;91.63;48.00;;;;;;;5.79;79.19;100998.77;3613320;80;33610;-85
2021/03/26 00:26:58;;;;;;;92.07;46.70;;;;;;;5.80;78.86;100999.06;3605641;80;98867;-86
2021/03/26 00:31:58;;;;;;;84.47;45.60;;;;;;;5.76;78.77;100993.17;3615137;80;33965;-86
2021/03/26 00:36:59;;;;;;;87.53;44.10;;;;;;;5.69;78.64;100990.17;3609203;80;98349;-86
2021/03/26 00:42:00;;;;;;;81.57;44.63;;;;;;;5.50;78.60;100995.25;3583642;81;33927;-86
2021/03/26 00:47:01;;;;;;;87.23;42.83;;;;;;;5.36;78.53;100991.97;3554432;80;98514;-86
2021/03/26 00:52:05;;;;;;;87.13;42.57;;;;;;;5.24;78.78;100990.50;3558756;81;31379;-86
2021/03/26 00:57:07;;;;;;;105.13;49.67;;;;;;;5.13;78.94;100990.63;3552298;81;98049;-86
2021/03/26 01:02:08;;;;;;;105.83;50.77;;;;;;;4.97;79.31;100986.25;3554610;81;33197;-86
2021/03/26 01:07:09;;;;;;;101.43;47.30;;;;;;;4.88;79.53;100981.95;3554851;81;98456;-86
2021/03/26 01:12:11;;;;;;;105.67;46.00;;;;;;;4.89;79.64;100977.55;3558359;81;33193;-86
2021/03/26 01:17:12;;;;;;;93.03;44.40;;;;;;;4.93;79.68;100981.23;3552581;80;98725;-86
2021/03/26 01:22:12;;;;;;;102.80;50.87;;;;;;;4.99;79.74;100979.11;3570105;81;33350;-86
2021/03/26 01:27:13;;;;;;;114.27;52.90;;;;;;;5.03;79.62;100980.06;3545072;80;98502;-86
2021/03/26 01:32:14;;;;;;;93.50;47.83;;;;;;;4.97;79.59;100971.25;3561652;80;98763;-84
2021/03/26 01:37:15;;;;;;;102.53;50.30;;;;;;;4.77;79.72;100965.16;3561813;81;33132;-86
2021/03/26 01:42:30;;;;;;;108.17;52.23;;;;;;;4.82;79.76;100972.35;3548376;81;99088;-85
2021/03/26 01:47:31;;;;;;;112.40;55.63;;;;;;;4.77;79.70;100969.80;3548210;81;26374;-86
2021/03/26 01:52:32;;;;;;;126.13;56.60;;;;;;;4.59;79.59;100973.12;3542806;81;98870;-86
2021/03/26 01:57:33;;;;;;;104.13;52.23;;;;;;;4.44;79.72;100979.09;3544036;81;33293;-85
2021/03/26 02:02:34;;;;;;;106.60;53.03;;;;;;;4.30;79.99;100973.01;3546639;81;98853;-86
2021/03/26 02:07:35;;;;;;;101.73;49.20;;;;;;;4.23;80.41;100982.23;3539991;81;33281;-85
2021/03/26 02:12:37;;;;;;;100.90;50.80;;;;;;;4.19;80.52;100977.73;3535559;81;98425;-86
2021/03/26 02:17:39;;;;;;;94.90;47.50;;;;;;;4.22;80.71;100977.92;3543857;80;33197;-86
2021/03/26 02:22:40;;;;;;;89.03;47.17;;;;;;;4.33;80.85;100977.02;3538760;81;98830;-86
2021/03/26 02:27:41;;;;;;;90.67;44.50;;;;;;;4.43;80.87;100977.47;3538313;81;33211;-86
2021/03/26 02:32:43;;;;;;;83.78;42.10;;;;;;;4.53;80.78;100976.36;3546491;81;99064;-86
2021/03/26 02:37:55;;;;;;;94.17;44.90;;;;;;;4.57;80.65;100980.02;3550704;81;33178;-87
2021/03/26 02:43:10;;;;;;;81.65;42.27;;;;;;;4.57;80.56;100974.02;3586500;80;98398;-86
2021/03/26 02:48:19;;;;;;;82.73;41.90;;;;;;;4.53;80.54;100976.36;3611030;80;25875;-86
2021/03/26 02:53:42;;;;;;;81.30;43.73;;;;;;;4.48;80.68;100977.30;3606131;80;99015;-86
2021/03/26 02:58:48;;;;;;;85.27;42.67;;;;;;;4.41;81.03;100983.00;3611682;80;26164;-86
2021/03/26 03:03:54;;;;;;;89.57;43.50;;;;;;;4.35;81.58;100982.94;3605968;80;98956;-83
2021/03/26 03:08:56;;;;;;;88.97;42.30;;;;;;;4.26;81.60;100973.41;3611826;80;25733;-86
2021/03/26 03:14:06;;;;;;;93.80;46.47;;;;;;;4.26;81.83;100981.58;3581635;80;98765;-86
2021/03/26 03:19:43;;;;;;;82.00;41.23;;;;;;;4.34;81.93;100986.79;3610286;80;26151;-86
2021/03/26 03:24:47;;;;;;;92.80;44.55;;;;;;;4.43;81.81;100988.38;3609711;80;99162;-86
2021/03/26 03:30:05;;;;;;;110.83;53.27;;;;;;;4.49;81.76;100983.57;3618436;80;26019;-86
2021/03/26 03:35:46;;;;;;;112.23;51.43;;;;;;;4.63;81.84;100980.89;3595597;80;99345;-86
2021/03/26 03:41:05;;;;;;;87.13;43.27;;;;;;;4.68;81.45;100982.09;3605637;80;26109;-87
2021/03/26 03:46:32;;;;;;;98.87;50.13;;;;;;;4.58;81.09;100971.52;3606853;80;98674;-87
2021/03/26 03:51:54;;;;;;;89.63;45.00;;;;;;;4.49;80.93;100972.67;3615757;80;25974;-86
2021/03/26 03:57:03;;;;;;;119.03;58.27;;;;;;;4.30;80.74;100975.73;3606395;80;98768;-86
2021/03/26 04:02:27;;;;;;;119.67;58.63;;;;;;;4.11;80.72;100972.55;3602127;80;26322;-86
2021/03/26 04:07:39;;;;;;;121.90;55.80;;;;;;;4.00;81.38;100966.38;3609176;80;25785;-86
2021/03/26 04:12:44;;;;;;;114.90;53.00;;;;;;;3.96;81.53;100969.48;3588898;80;98839;-84
2021/03/26 04:18:03;;;;;;;111.83;53.60;;;;;;;4.03;82.42;100977.97;3610880;80;26040;-85
2021/03/26 04:23:36;;;;;;;130.27;59.48;;;;;;;4.13;82.36;100978.47;3605087;80;98984;-85
2021/03/26 04:28:42;;;;;;;97.33;48.53;;;;;;;4.26;82.12;100984.30;3606173;80;26373;-86
2021/03/26 04:33:43;;;;;;;108.43;51.30;;;;;;;4.34;81.62;100974.52;3602023;80;98563;-86
2021/03/26 04:38:52;;;;;;;114.63;56.27;;;;;;;4.29;81.48;100975.50;3612634;80;33643;-86
2021/03/26 04:44:13;;;;;;;119.17;59.03;;;;;;;4.27;81.53;100983.76;3595095;80;98841;-86
2021/03/26 04:49:37;;;;;;;111.73;55.07;;;;;;;4.20;81.83;100987.53;3614099;80;25925;-85
2021/03/26 04:54:56;;;;;;;123.55;58.80;;;;;;;4.09;81.72;100991.12;3608237;80;99073;-85
2021/03/26 05:00:14;;;;;;;134.80;61.83;;;;;;;4.04;82.34;100995.36;3611084;80;33361;-86
2021/03/26 05:05:19;;;;;;;134.47;61.40;;;;;;;3.91;82.63;100994.96;3616056;80;99040;-86
2021/03/26 05:10:23;;;;;;;134.47;63.50;;;;;;;3.95;83.22;100996.48;3608796;80;26454;-84
2021/03/26 05:15:32;;;;;;;118.03;57.97;;;;;;;4.04;83.80;100995.36;3597917;80;98989;-85
2021/03/26 05:20:54;;;;;;;128.30;62.40;;;;;;;4.16;83.67;100997.45;3608805;80;26351;-86
2021/03/26 05:25:59;;;;;;;122.63;60.17;;;;;;;4.36;84.05;101004.42;3611048;80;99114;-86
2021/03/26 05:31:28;;;;;;;129.70;62.60;;;;;;;4.63;84.24;101008.73;3617719;80;26006;-86
2021/03/26 05:36:43;;;;;;;124.03;60.40;;;;;;;4.96;84.91;101009.78;3567956;80;99176;-85
2021/03/26 05:42:28;;;;;;;116.67;58.83;;;;;;;5.21;84.51;101011.05;3608053;80;26073;-85
2021/03/26 05:48:15;;;;;;;139.27;67.63;;;;;;;5.36;84.39;101013.22;3617893;80;26059;-85
2021/03/26 05:53:50;;;;;;;154.83;73.90;;;;;;;5.51;84.50;101014.03;3596591;80;99287;-86
2021/03/26 05:59:04;;;;;;;154.23;76.57;;;;;;;5.68;84.26;101009.84;3607690;80;28461;-86
2021/03/26 06:04:37;;;;;;;158.23;73.63;;;;;;;5.84;84.57;101011.48;3605870;80;98742;-86
2021/03/26 06:10:06;;;;;;;175.07;82.37;;;;;;;5.78;84.79;101010.83;3613248;80;26096;-85
2021/03/26 06:15:51;;;;;;;172.80;78.85;;;;;;;5.81;84.77;101020.33;3600222;80;99794;-86
2021/03/26 06:21:15;;;;;;;178.93;84.63;;;;;;;5.85;84.97;101022.64;3613719;80;25865;-86
2021/03/26 06:26:54;;;;;;;161.93;77.33;;;;;;;6.01;84.93;101018.20;3609453;80;99139;-86
2021/03/26 06:32:00;;;;;;;167.10;79.93;;;;;;;6.25;84.94;101019.14;3611289;80;26358;-86
2021/03/26 06:37:55;;;;;;;178.75;85.15;;;;;;;6.50;84.86;101023.58;3598440;80;99041;-87
2021/03/26 06:43:38;;;;;;;177.33;86.73;;;;;;;6.84;84.78;101019.16;3599215;80;99412;-86
2021/03/26 06:48:53;;;;;;;173.73;87.23;;;;;;;7.16;84.23;101027.10;3580779;81;26092;-86
2021/03/26 06:54:23;;;;;;;170.45;81.80;;;;;;;7.30;83.99;101018.79;3570911;81;98938;-86
2021/03/26 07:00:00;;;;;;;159.87;80.40;;;;;;;7.43;84.05;101033.30;3584575;81;25741;-85
2021/03/26 07:05:16;;;;;;;160.25;79.00;;;;;;;7.62;83.62;101015.72;3578263;81;99241;-86
2021/03/26 07:10:37;;;;;;;156.20;74.57;;;;;;;7.87;83.74;101026.90;3506002;82;26142;-87
2021/03/26 07:16:07;;;;;;;153.90;76.03;;;;;;;8.11;83.06;101029.03;3459580;83;99069;-87
2021/03/26 07:21:32;;;;;;;154.73;74.10;;;;;;;8.42;83.20;101031.97;3458093;83;33224;-91
2021/03/26 07:27:04;;;;;;;143.27;72.13;;;;;;;8.84;82.91;101030.99;3461736;83;99084;-89
2021/03/26 07:32:22;;;;;;;162.07;79.40;;;;;;;9.18;82.23;101026.22;3471014;83;25957;-89
2021/03/26 07:37:35;;;;;;;166.13;79.80;;;;;;;9.61;81.13;101039.88;3468108;84;26145;-87
2021/03/26 07:42:44;;;;;;;167.63;85.13;;;;;;;9.89;80.45;101032.30;3460812;83;99238;-87
2021/03/26 07:48:24;;;;;;;154.27;80.33;;;;;;;10.04;79.69;101035.05;3477331;83;25795;-87
2021/03/26 07:53:59;;;;;;;158.50;79.03;;;;;;;10.21;79.38;101040.73;3466670;83;99041;-86
2021/03/26 07:59:22;;;;;;;156.57;74.13;;;;;;;10.39;78.64;101032.28;3466466;83;26066;-87
2021/03/26 08:04:53;;;;;;;140.47;70.73;;;;;;;10.57;78.76;101030.72;3460947;83;99458;-87
2021/03/26 08:10:34;;;;;;;128.30;65.57;;;;;;;10.74;77.67;101038.53;3447605;83;26096;-87
2021/03/26 08:16:06;;;;;;;95.73;50.57;;;;;;;10.98;76.78;101043.16;3464822;83;99001;-88
2021/03/26 08:21:27;;;;;;;97.82;46.35;;;;;;;11.21;74.99;101039.03;3491053;83;26165;-88
2021/03/26 08:27:24;;;;;;;105.50;49.38;;;;;;;11.49;75.70;101037.58;3480919;82;98926;-88
2021/03/26 08:32:53;;;;;;;95.73;50.73;;;;;;;11.87;75.08;101044.34;3576526;80;99246;-88
2021/03/26 08:38:16;;;;;;;98.27;48.00;;;;;;;12.52;74.04;101040.15;3590038;80;25768;-88
2021/03/26 08:43:19;;;;;;;99.37;50.97;;;;;;;13.05;70.94;101033.89;3586801;80;99065;-88
2021/03/26 08:48:32;;;;;;;71.83;40.30;;;;;;;13.48;71.27;101031.17;3615893;80;26351;-88
2021/03/26 08:54:13;;;;;;;75.77;38.83;;;;;;;14.03;70.72;101034.75;3603468;80;99090;-85
2021/03/26 08:59:41;;;;;;;63.63;33.57;;;;;;;14.63;69.92;101040.06;3610206;79;25762;-84
2021/03/26 09:05:05;;;;;;;56.00;28.60;;;;;;;15.08;67.20;101038.84;3609158;80;99038;-85
2021/03/26 09:10:54;;;;;;;50.20;25.72;;;;;;;15.49;66.68;101038.72;3614018;80;25978;-85
2021/03/26 09:16:10;;;;;;;50.83;27.43;;;;;;;15.93;64.78;101032.78;3606951;80;98824;-85
2021/03/26 09:21:25;;;;;;;57.17;31.70;;;;;;;16.53;64.68;101041.81;3612097;80;26461;-86
2021/03/26 09:26:40;;;;;;;55.10;28.25;;;;;;;17.00;63.01;101044.78;3554358;80;99033;-86
2021/03/26 09:32:01;;;;;;;60.20;34.70;;;;;;;17.53;62.39;101048.64;3611179;80;26704;-85
2021/03/26 09:37:17;;;;;;;63.83;35.43;;;;;;;17.85;60.24;101052.77;3574536;80;98907;-86
2021/03/26 09:42:41;;;;;;;60.50;34.60;;;;;;;18.18;59.37;101049.28;3610541;80;99263;-85
2021/03/26 09:47:53;;;;;;;55.10;31.90;;;;;;;18.42;57.72;101055.21;3612754;80;25871;-84
2021/03/26 09:52:56;;;;;;;53.70;31.95;;;;;;;18.75;57.65;101046.69;3604440;80;99257;-85
2021/03/26 09:58:28;;;;;;;58.95;34.43;;;;;;;19.09;56.03;101044.63;3614554;80;26159;-84
2021/03/26 10:03:49;;;;;;;57.75;34.75;;;;;;;19.27;53.60;101047.39;3604231;80;99291;-84
2021/03/26 10:09:11;;;;;;;59.93;35.17;;;;;;;19.24;53.34;101043.26;3608813;80;26199;-85
2021/03/26 10:14:20;;;;;;;59.10;36.10;;;;;;;19.30;53.34;101033.97;3606854;80;99403;-87
2021/03/26 10:19:27;;;;;;;103.80;41.40;;;;;;;19.24;50.61;101025.89;3607672;80;25735;-87
2021/03/26 10:24:32;;;;;;;66.67;37.08;;;;;;;19.55;53.13;101021.83;3606863;79;99349;-87
2021/03/26 10:30:10;;;;;;;63.27;37.83;;;;;;;19.94;51.32;101024.75;3586449;80;26227;-88
2021/03/26 10:35:22;;;;;;;57.38;34.50;;;;;;;19.76;49.85;101022.08;3608195;80;99050;-90
2021/03/26 10:40:57;;;;;;;54.08;32.05;;;;;;;19.77;49.25;101020.27;3608408;80;26261;-87
2021/03/26 10:46:14;;;;;;;47.77;30.23;;;;;;;20.11;50.38;101014.52;3609415;80;99051;-86
2021/03/26 10:51:52;;;;;;;61.88;32.63;;;;;;;20.23;48.42;101009.69;3615908;80;26205;-87
2021/03/26 10:57:32;;;;;;;63.55;34.20;;;;;;;20.12;48.13;101009.10;3597669;79;99220;-84
2021/03/26 11:03:04;;;;;;;51.92;29.35;;;;;;;19.74;47.74;101007.16;3600413;80;99260;-86
2021/03/26 11:08:13;;;;;;;48.58;29.45;;;;;;;19.49;46.92;101005.38;3601011;80;25857;-92
2021/03/26 11:13:55;;;;;;;43.78;28.40;;;;;;;19.39;46.47;100999.34;3591633;80;99141;-85
2021/03/26 11:19:00;;;;;;;45.35;26.90;;;;;;;19.39;46.83;100992.97;3609576;80;25838;-86
2021/03/26 11:24:07;;;;;;;47.23;27.23;;;;;;;19.68;46.98;100988.52;3604892;80;99324;-89
2021/03/26 11:29:24;;;;;;;43.60;26.43;;;;;;;19.83;46.04;100983.64;3603830;80;26298;-90
2021/03/26 11:35:01;;;;;;;54.03;31.33;;;;;;;20.11;46.24;100981.75;3615127;79;99002;-92
2021/03/26 11:40:32;;;;;;;51.47;30.20;;;;;;;20.22;44.60;100976.74;3585227;80;44126;-89
2021/03/26 11:45:56;;;;;;;57.45;32.95;;;;;;;20.23;45.30;100975.55;3583536;80;98689;-90
2021/03/26 11:51:05;;;;;;;52.85;31.35;;;;;;;20.37;44.23;100971.66;3616693;80;26132;-93
2021/03/26 11:56:17;;;;;;;53.65;32.13;;;;;;;20.25;43.51;100968.11;3612738;80;98544;-93
2021/03/26 12:01:26;;;;;;;57.05;33.38;;;;;;;20.26;43.39;100961.30;3580498;80;26288;-90
2021/03/26 12:06:42;;;;;;;51.60;29.63;;;;;;;19.97;43.88;100948.47;3607408;80;99006;-91
2021/03/26 12:12:23;;;;;;;54.93;32.08;;;;;;;19.89;45.66;100949.03;3605756;80;25959;-90
2021/03/26 12:17:44;;;;;;;48.80;30.83;;;;;;;19.78;43.78;100945.02;3599337;80;25755;-90
2021/03/26 12:23:10;;;;;;;49.77;29.45;;;;;;;19.21;44.27;100931.86;3601115;80;98643;-89
2021/03/26 12:28:28;;;;;;;54.70;35.88;;;;;;;19.28;45.41;100932.34;3603382;80;26459;-92
2021/03/26 12:33:52;;;;;;;46.42;29.18;;;;;;;19.57;45.82;100930.04;3605581;80;99035;-91
2021/03/26 12:39:11;;;;;;;40.78;24.80;;;;;;;19.80;44.65;100924.45;3610447;80;25854;-91
2021/03/26 12:44:34;;;;;;;48.40;26.95;;;;;;;19.90;44.33;100921.27;3608628;79;99135;-91
2021/03/26 12:49:56;;;;;;;49.25;28.98;;;;;;;19.83;42.76;100906.05;3612494;80;26107;-91
2021/03/26 12:55:19;;;;;;;43.60;26.25;;;;;;;19.90;42.98;100903.88;3600451;80;98930;-93
2021/03/26 13:00:34;;;;;;;44.20;26.62;;;;;;;19.83;43.35;100899.84;3602974;80;25928;-92
2021/03/26 13:05:39;;;;;;;39.23;26.97;;;;;;;19.83;43.43;100891.45;3608240;80;99176;-90
2021/03/26 13:11:11;;;;;;;48.20;29.00;;;;;;;19.90;43.93;100898.30;3610768;80;26073;-91
2021/03/26 13:16:42;;;;;;;46.73;29.80;;;;;;;19.87;43.12;100892.19;3604057;80;98477;-92
2021/03/26 13:22:20;;;;;;;45.55;26.25;;;;;;;19.60;43.69;100886.52;3612117;80;26067;-89
2021/03/26 13:27:29;;;;;;;49.45;29.95;;;;;;;19.68;43.29;100883.16;3603327;80;25949;-91
2021/03/26 13:33:00;;;;;;;40.60;23.95;;;;;;;19.50;42.55;100879.91;3602202;80;99613;-89
2021/03/26 13:38:24;;;;;;;42.03;26.82;;;;;;;19.36;43.74;100877.98;3605611;80;25924;-90
2021/03/26 13:43:29;;;;;;;41.42;26.85;;;;;;;19.27;42.82;100868.77;3604293;80;99006;-95
2021/03/26 13:48:38;;;;;;;42.23;25.13;;;;;;;19.01;42.84;100870.97;3497917;80;32317;-90
2021/03/26 13:53:49;;;;;;;43.92;26.33;;;;;;;18.91;44.26;100863.55;3479141;82;98944;-89
2021/03/26 13:58:57;;;;;;;41.20;24.10;;;;;;;18.96;44.86;100865.86;3485570;83;26006;-89
2021/03/26 14:04:36;;;;;;;41.77;24.77;;;;;;;18.93;45.25;100863.94;3478574;82;98974;-89
2021/03/26 14:09:48;;;;;;;39.70;24.23;;;;;;;18.81;44.60;100857.53;3490563;83;26359;-90
2021/03/26 14:14:58;;;;;;;37.75;21.97;;;;;;;18.59;44.10;100850.70;3479358;82;99131;-92
2021/03/26 14:20:09;;;;;;;39.90;23.60;;;;;;;18.53;43.75;100854.40;3491717;83;25809;-91
2021/03/26 14:25:30;;;;;;;39.18;23.22;;;;;;;18.38;44.14;100849.63;3485268;83;98741;-92
2021/03/26 14:30:43;;;;;;;38.60;21.37;;;;;;;18.39;44.48;100842.05;3492955;83;25808;-90
2021/03/26 14:35:52;;;;;;;36.50;21.70;;;;;;;18.32;44.21;100839.37;3477201;82;98731;-93
2021/03/26 14:41:15;;;;;;;32.83;20.02;;;;;;;18.41;45.09;100827.08;3495767;83;25891;-91
2021/03/26 14:46:20;;;;;;;30.40;18.32;;;;;;;18.37;44.31;100827.13;3511612;81;98269;-92
2021/03/26 14:51:41;;;;;;;37.73;21.23;;;;;;;18.31;43.29;100823.83;3602882;80;26023;-92
2021/03/26 14:57:13;;;;;;;41.50;25.50;;;;;;;18.10;43.74;100822.10;3604812;80;98516;-96
2021/03/26 15:02:14;;;;;;;36.65;21.57;;;;;;;18.05;44.17;100818.38;3607023;80;26069;-95
2021/03/26 15:07:23;;;;;;;41.05;23.25;;;;;;;18.01;45.00;100821.04;3474930;82;26043;-92
2021/03/26 15:12:46;;;;;;;39.70;24.50;;;;;;;17.90;44.06;100818.41;3525621;81;98967;-91
2021/03/26 15:18:21;;;;;;;41.00;21.77;;;;;;;17.81;44.67;100813.13;3615364;80;25845;-90
2021/03/26 15:23:53;;;;;;;41.73;24.55;;;;;;;17.67;44.88;100811.92;3598365;80;99007;-85
2021/03/26 15:29:11;;;;;;;40.65;21.65;;;;;;;17.62;45.88;100809.00;3617155;80;25966;-89
2021/03/26 15:35:03;;;;;;;42.53;25.23;;;;;;;17.51;46.18;100801.38;3609583;80;99001;-91
2021/03/26 15:40:25;;;;;;;45.15;26.07;;;;;;;17.47;46.05;100804.80;3604252;80;26088;-93
2021/03/26 15:45:30;;;;;;;40.28;25.10;;;;;;;17.41;45.52;100799.50;3613321;80;99131;-91
2021/03/26 15:50:39;;;;;;;39.83;24.80;;;;;;;17.25;46.63;100792.28;3611067;80;30641;-90
2021/03/26 15:56:04;;;;;;;47.87;25.87;;;;;;;17.21;47.46;100790.13;3610559;80;98758;-90
2021/03/26 16:01:22;;;;;;;40.45;24.45;;;;;;;17.05;46.98;100785.71;3612472;80;26128;-90
2021/03/26 16:06:58;;;;;;;35.15;19.90;;;;;;;17.02;47.85;100789.33;3621356;80;98679;-90
2021/03/26 16:12:34;;;;;;;39.42;21.77;;;;;;;16.97;46.63;100784.80;3622704;80;26110;-92
2021/03/26 16:18:00;;;;;;;39.30;21.77;;;;;;;16.85;45.73;100783.92;3621226;80;33162;-89
2021/03/26 16:23:44;;;;;;;47.03;24.70;;;;;;;16.72;46.29;100773.90;3615395;80;99430;-95
2021/03/26 16:29:26;;;;;;;40.38;21.70;;;;;;;16.58;45.98;100776.78;3612082;80;25972;-91
2021/03/26 16:34:43;;;;;;;42.90;25.23;;;;;;;16.40;46.81;100773.97;3605010;80;98688;-90
2021/03/26 16:40:23;;;;;;;42.08;21.90;;;;;;;16.25;46.61;100771.83;3607689;80;25737;-90
2021/03/26 16:45:29;;;;;;;58.68;25.75;;;;;;;15.95;46.75;100742.48;3606032;80;99087;-89
2021/03/26 16:50:36;;;;;;;;;;;;;;;15.90;47.55;100755.39;3620694;79;26107;-90
2021/03/26 16:55:42;;;;;;;63.70;38.85;;;;;;;15.78;50.38;100763.38;3605244;80;84843;-89
2021/03/26 17:01:17;;;;;;;68.20;41.20;;;;;;;15.66;49.69;100752.73;3618587;80;25972;-90
2021/03/26 17:06:44;;;;;;;56.85;35.50;;;;;;;15.52;50.57;100748.63;3622572;80;98384;-89
2021/03/26 17:11:54;;;;;;;40.90;26.35;;;;;;;15.33;51.80;100755.45;3616715;80;26580;-89
2021/03/26 17:17:35;;;;;;;40.10;22.60;;;;;;;15.07;52.62;100760.03;3616962;80;98694;-90
2021/03/26 17:23:17;;;;;;;39.50;21.35;;;;;;;14.88;53.65;100756.28;3612899;79;98765;-89
2021/03/26 17:28:48;;;;;;;47.75;24.27;;;;;;;14.65;54.18;100761.45;3621313;80;26018;-89
2021/03/26 17:34:09;;;;;;;64.30;35.67;;;;;;;14.40;55.12;100761.25;3618077;80;98760;-89
2021/03/26 17:39:36;;;;;;;127.50;80.57;;;;;;;14.14;55.61;100763.76;3614567;80;25803;-89
2021/03/26 17:45:11;;;;;;;93.67;55.52;;;;;;;13.87;56.26;100761.70;3561154;80;99365;-89
2021/03/26 17:50:27;;;;;;;86.08;47.55;;;;;;;13.60;56.94;100761.22;3610993;80;26370;-89
2021/03/26 17:56:11;;;;;;;87.92;51.30;;;;;;;13.36;57.69;100763.27;3599994;80;98610;-89
2021/03/26 18:01:55;;;;;;;94.55;54.65;;;;;;;13.13;58.26;100756.45;3616720;80;26546;-89
2021/03/26 18:07:10;;;;;;;108.10;57.13;;;;;;;12.88;58.79;100761.78;3593426;80;99458;-89
2021/03/26 18:12:31;;;;;;;105.65;55.55;;;;;;;12.60;59.44;100766.28;3612852;80;25874;-89
2021/03/26 18:18:14;;;;;;;97.80;51.77;;;;;;;12.37;59.99;100765.09;3623463;80;25726;-89
2021/03/26 18:23:33;;;;;;;96.95;50.03;;;;;;;12.17;60.61;100762.36;3614385;80;99203;-89
2021/03/26 18:28:54;;;;;;;88.47;44.70;;;;;;;11.96;61.10;100764.09;3578630;80;25880;-89
2021/03/26 18:34:48;;;;;;;89.67;46.33;;;;;;;11.73;61.56;100765.59;3610895;80;98332;-88
2021/03/26 18:40:07;;;;;;;91.92;47.58;;;;;;;11.52;62.22;100770.84;3620045;80;25310;-89
2021/03/26 18:45:40;;;;;;;77.60;42.17;;;;;;;11.26;62.63;100771.45;3601207;80;98852;-89
2021/03/26 18:51:07;;;;;;;80.32;42.80;;;;;;;11.07;63.32;100768.84;3622066;80;26266;-87
2021/03/26 18:56:33;;;;;;;71.77;38.00;;;;;;;10.95;64.33;100776.73;3614106;80;98810;-90
2021/03/26 19:01:59;;;;;;;62.27;33.43;;;;;;;10.86;64.10;100776.78;3619560;80;26340;-90
2021/03/26 19:07:29;;;;;;;62.17;32.47;;;;;;;10.83;64.31;100774.19;3606469;80;98682;-91
2021/03/26 19:12:58;;;;;;;62.03;32.20;;;;;;;10.84;64.37;100774.39;3617055;80;98911;-91
2021/03/26 19:18:05;;;;;;;75.05;39.38;;;;;;;10.91;64.59;100770.36;3608413;80;26045;-89
2021/03/26 19:23:18;;;;;;;;;;;;;;;10.93;64.27;100768.63;3607535;80;98945;-89
2021/03/26 19:28:30;;;;;;;94.30;45.52;;;;;;;10.86;64.90;100763.80;3614059;80;26371;-89
2021/03/26 19:34:08;;;;;;;92.10;47.27;;;;;;;10.79;64.48;100765.07;3609067;80;98969;-89
2021/03/26 19:39:29;;;;;;;80.40;41.77;;;;;;;10.72;64.72;100764.16;3603551;80;25935;-89
2021/03/26 19:45:21;;;;;;;86.77;46.10;;;;;;;10.60;64.85;100762.99;3607979;80;98965;-89
2021/03/26 19:50:44;;;;;;;74.43;41.97;;;;;;;10.47;65.21;100767.11;3590534;81;26062;-90
2021/03/26 19:56:00;;;;;;;85.60;47.20;;;;;;;10.32;65.65;100754.27;3581788;80;98861;-89
2021/03/26 20:01:18;;;;;;;98.50;53.27;;;;;;;10.21;65.97;100755.47;3589111;80;25955;-88
2021/03/26 20:06:59;;;;;;;97.08;49.77;;;;;;;10.08;66.29;100759.54;3588906;80;98879;-90
2021/03/26 20:12:14;;;;;;;88.92;46.45;;;;;;;9.99;66.66;100755.41;3601370;80;26078;-90
2021/03/26 20:17:35;;;;;;;84.80;45.83;;;;;;;9.88;67.16;100751.67;3586831;81;98416;-90
2021/03/26 20:23:00;;;;;;;93.73;46.40;;;;;;;9.81;67.53;100745.45;3580689;81;98321;-91
2021/03/26 20:28:06;;;;;;;97.13;47.43;;;;;;;9.74;68.04;100743.14;3586800;81;25673;-90
2021/03/26 20:33:41;;;;;;;103.12;45.40;;;;;;;9.69;68.02;100738.75;3581979;80;98274;-90
2021/03/26 20:39:07;;;;;;;104.90;47.53;;;;;;;9.65;68.60;100741.22;3585213;81;25936;-91
2021/03/26 20:44:29;;;;;;;113.40;49.07;;;;;;;9.71;68.85;100729.55;3583728;80;98616;-90
2021/03/26 20:49:50;;;;;;;103.67;46.07;;;;;;;9.79;69.12;100734.03;3602847;80;25925;-92
2021/03/26 20:55:21;;;;;;;107.70;52.08;;;;;;;9.85;69.11;100724.89;3612517;80;98828;-90
2021/03/26 21:00:50;;;;;;;125.17;56.27;;;;;;;9.90;68.99;100723.23;3614593;80;26504;-90
2021/03/26 21:06:16;;;;;;;103.45;50.25;;;;;;;9.90;68.98;100721.85;3616077;80;98862;-90
2021/03/26 21:11:58;;;;;;;96.40;47.47;;;;;;;9.88;68.86;100723.59;3601808;80;25639;-90
2021/03/26 21:17:04;;;;;;;94.60;45.08;;;;;;;9.81;69.11;100723.46;3610257;80;98505;-89
2021/03/26 21:22:26;;;;;;;93.27;47.53;;;;;;;9.71;69.10;100716.40;3615274;80;25795;-90
2021/03/26 21:27:47;;;;;;;94.37;48.58;;;;;;;9.60;69.36;100712.06;3621494;80;25593;-89
2021/03/26 21:33:20;;;;;;;82.72;42.93;;;;;;;9.48;69.56;100714.19;3614715;80;98856;-88
2021/03/26 21:38:44;;;;;;;78.12;42.98;;;;;;;9.33;69.85;100717.20;3626796;80;25741;-87
2021/03/26 21:44:11;;;;;;;95.53;48.23;;;;;;;9.21;70.09;100713.23;3587533;80;98595;-89
2021/03/26 21:49:32;;;;;;;104.97;50.53;;;;;;;9.12;70.24;100712.67;3570333;80;26164;-89
2021/03/26 21:54:57;;;;;;;109.53;53.07;;;;;;;9.00;70.46;100709.25;3608640;80;98690;-88
2021/03/26 22:00:26;;;;;;;94.93;46.93;;;;;;;8.91;70.87;100705.91;3612462;80;26001;-89
2021/03/26 22:05:36;;;;;;;85.00;43.70;;;;;;;8.88;71.13;100705.27;3607965;80;98616;-90
2021/03/26 22:10:47;;;;;;;104.50;52.00;;;;;;;8.86;71.09;100703.44;3618970;80;25776;-88
2021/03/26 22:16:03;;;;;;;100.70;52.25;;;;;;;8.92;71.42;100696.52;3614313;80;98859;-88
2021/03/26 22:21:30;;;;;;;102.83;51.40;;;;;;;9.01;71.37;100697.92;3612037;80;26092;-89
2021/03/26 22:26:46;;;;;;;101.97;51.70;;;;;;;9.02;71.29;100692.64;3600563;80;98828;-89
2021/03/26 22:31:52;;;;;;;90.97;49.07;;;;;;;8.96;71.25;100693.28;3618325;80;25744;-89
2021/03/26 22:36:58;;;;;;;103.30;53.20;;;;;;;8.83;71.18;100689.86;3593395;80;98642;-89
2021/03/26 22:42:12;;;;;;;108.80;53.02;;;;;;;8.69;71.46;100681.33;3612519;80;25867;-90
2021/03/26 22:47:41;;;;;;;106.53;53.23;;;;;;;8.55;71.92;100676.06;3617201;80;98045;-90
2021/03/26 22:53:04;;;;;;;101.07;51.00;;;;;;;8.36;72.39;100673.28;3603452;80;98781;-90
2021/03/26 22:58:10;;;;;;;94.57;48.50;;;;;;;8.17;72.99;100678.09;3619692;80;26024;-89
2021/03/26 23:04:03;;;;;;;99.90;49.25;;;;;;;8.03;73.83;100672.27;3604608;80;98897;-89
2021/03/26 23:09:20;;;;;;;97.97;47.47;;;;;;;8.00;74.42;100668.05;3465501;80;26097;-90
2021/03/26 23:14:36;;;;;;;97.62;48.85;;;;;;;8.02;74.52;100656.95;3626396;80;98482;-89
2021/03/26 23:20:03;;;;;;;102.10;50.97;;;;;;;8.08;74.75;100652.02;3633851;80;26222;-88
2021/03/26 23:25:13;;;;;;;104.03;51.53;;;;;;;8.16;74.60;100649.66;3616959;80;98848;-89
2021/03/26 23:30:42;;;;;;;100.40;49.97;;;;;;;8.18;74.41;100640.52;3620294;80;25769;-89
2021/03/26 23:35:47;;;;;;;94.72;50.25;;;;;;;8.03;74.64;100642.12;3617561;80;98813;-89
2021/03/26 23:41:17;;;;;;;104.10;51.27;;;;;;;7.87;75.52;100641.89;3619633;80;26125;-89
2021/03/26 23:46:26;;;;;;;90.00;46.70;;;;;;;7.75;75.90;100640.02;3601967;80;98382;-89
2021/03/26 23:51:35;;;;;;;88.30;47.27;;;;;;;7.64;75.64;100630.73;3609110;80;25918;-89
2021/03/26 23:56:36;;;;;;;87.47;43.23;;;;;;;7.59;75.62;100622.00;3615018;80;98535;-89
